sensor_id;sensor_type;location;lat;lon;timestamp;P1;durP1;ratioP1;P2;durP2;ratioP2
81170;SDS011;70644;44.818;20.478;2023-08-07T00:00:33;4.10;;;3.10;;
81170;SDS011;70644;44.818;20.478;2023-08-07T00:02:59;3.50;;;2.90;;
81170;SDS011;70644;44.818;20.478;2023-08-07T00:05:25;4.55;;;3.30;;
81170;SDS011;70644;44.818;20.478;2023-08-07T00:07:51;4.80;;;3.17;;
81170;SDS011;70644;44.818;20.478;2023-08-07T00:10:17;4.22;;;3.05;;
81170;SDS011;70644;44.818;20.478;2023-08-07T00:12:43;3.38;;;2.90;;
81170;SDS011;70644;44.818;20.478;2023-08-07T00:15:09;4.40;;;3.10;;
81170;SDS011;70644;44.818;20.478;2023-08-07T00:17:36;3.53;;;2.72;;
81170;SDS011;70644;44.818;20.478;2023-08-07T00:20:03;3.42;;;2.70;;
81170;SDS011;70644;44.818;20.478;2023-08-07T00:22:29;4.68;;;3.15;;
81170;SDS011;70644;44.818;20.478;2023-08-07T00:24:55;4.15;;;3.00;;
81170;SDS011;70644;44.818;20.478;2023-08-07T00:27:21;4.00;;;2.75;;
81170;SDS011;70644;44.818;20.478;2023-08-07T00:29:47;4.15;;;3.17;;
81170;SDS011;70644;44.818;20.478;2023-08-07T00:32:14;3.40;;;2.72;;
81170;SDS011;70644;44.818;20.478;2023-08-07T00:34:40;3.28;;;2.60;;
81170;SDS011;70644;44.818;20.478;2023-08-07T00:37:06;3.10;;;2.30;;
81170;SDS011;70644;44.818;20.478;2023-08-07T00:39:32;4.03;;;2.72;;
81170;SDS011;70644;44.818;20.478;2023-08-07T00:41:58;3.72;;;2.58;;
81170;SDS011;70644;44.818;20.478;2023-08-07T00:44:24;3.58;;;2.92;;
81170;SDS011;70644;44.818;20.478;2023-08-07T00:46:50;3.30;;;2.88;;
81170;SDS011;70644;44.818;20.478;2023-08-07T00:49:16;3.30;;;2.67;;
81170;SDS011;70644;44.818;20.478;2023-08-07T00:51:43;3.03;;;2.40;;
81170;SDS011;70644;44.818;20.478;2023-08-07T00:54:10;4.68;;;2.80;;
81170;SDS011;70644;44.818;20.478;2023-08-07T00:56:37;3.30;;;2.50;;
81170;SDS011;70644;44.818;20.478;2023-08-07T00:59:03;3.28;;;2.50;;
81170;SDS011;70644;44.818;20.478;2023-08-07T01:01:29;3.22;;;2.40;;
81170;SDS011;70644;44.818;20.478;2023-08-07T01:03:55;3.30;;;2.20;;
81170;SDS011;70644;44.818;20.478;2023-08-07T01:06:21;3.22;;;2.40;;
81170;SDS011;70644;44.818;20.478;2023-08-07T01:08:48;3.40;;;2.30;;
81170;SDS011;70644;44.818;20.478;2023-08-07T01:11:20;3.63;;;2.58;;
81170;SDS011;70644;44.818;20.478;2023-08-07T01:14:05;3.65;;;2.40;;
81170;SDS011;70644;44.818;20.478;2023-08-07T01:16:42;3.22;;;2.22;;
81170;SDS011;70644;44.818;20.478;2023-08-07T01:19:13;3.00;;;2.30;;
81170;SDS011;70644;44.818;20.478;2023-08-07T01:21:44;2.90;;;2.13;;
81170;SDS011;70644;44.818;20.478;2023-08-07T01:24:11;2.92;;;2.28;;
81170;SDS011;70644;44.818;20.478;2023-08-07T01:26:37;3.15;;;2.33;;
81170;SDS011;70644;44.818;20.478;2023-08-07T01:29:08;3.10;;;2.13;;
81170;SDS011;70644;44.818;20.478;2023-08-07T01:31:38;3.05;;;2.20;;
81170;SDS011;70644;44.818;20.478;2023-08-07T01:34:05;2.85;;;2.22;;
81170;SDS011;70644;44.818;20.478;2023-08-07T01:36:33;2.72;;;2.13;;
81170;SDS011;70644;44.818;20.478;2023-08-07T01:39:00;2.78;;;2.15;;
81170;SDS011;70644;44.818;20.478;2023-08-07T01:41:27;2.70;;;1.95;;
81170;SDS011;70644;44.818;20.478;2023-08-07T01:43:54;2.95;;;2.00;;
81170;SDS011;70644;44.818;20.478;2023-08-07T01:46:20;2.90;;;1.95;;
81170;SDS011;70644;44.818;20.478;2023-08-07T01:48:46;2.92;;;1.90;;
81170;SDS011;70644;44.818;20.478;2023-08-07T01:51:12;3.60;;;2.00;;
81170;SDS011;70644;44.818;20.478;2023-08-07T01:53:38;2.95;;;1.85;;
81170;SDS011;70644;44.818;20.478;2023-08-07T01:56:04;2.95;;;2.05;;
81170;SDS011;70644;44.818;20.478;2023-08-07T01:58:30;2.83;;;1.95;;
81170;SDS011;70644;44.818;20.478;2023-08-07T02:00:56;2.65;;;1.95;;
81170;SDS011;70644;44.818;20.478;2023-08-07T02:03:23;2.92;;;1.90;;
81170;SDS011;70644;44.818;20.478;2023-08-07T02:05:49;2.45;;;1.75;;
81170;SDS011;70644;44.818;20.478;2023-08-07T02:08:15;3.17;;;2.10;;
81170;SDS011;70644;44.818;20.478;2023-08-07T02:10:41;2.50;;;1.70;;
81170;SDS011;70644;44.818;20.478;2023-08-07T02:13:07;2.60;;;1.90;;
81170;SDS011;70644;44.818;20.478;2023-08-07T02:15:33;2.95;;;2.20;;
81170;SDS011;70644;44.818;20.478;2023-08-07T02:17:59;3.22;;;1.98;;
81170;SDS011;70644;44.818;20.478;2023-08-07T02:20:25;2.58;;;1.73;;
81170;SDS011;70644;44.818;20.478;2023-08-07T02:22:51;2.70;;;1.90;;
81170;SDS011;70644;44.818;20.478;2023-08-07T02:25:17;2.22;;;1.50;;
81170;SDS011;70644;44.818;20.478;2023-08-07T02:27:43;2.47;;;1.77;;
81170;SDS011;70644;44.818;20.478;2023-08-07T02:30:09;2.95;;;1.80;;
81170;SDS011;70644;44.818;20.478;2023-08-07T02:32:35;2.50;;;1.70;;
81170;SDS011;70644;44.818;20.478;2023-08-07T02:35:01;3.15;;;1.80;;
81170;SDS011;70644;44.818;20.478;2023-08-07T02:37:27;5.32;;;1.85;;
81170;SDS011;70644;44.818;20.478;2023-08-07T02:39:53;3.47;;;2.10;;
81170;SDS011;70644;44.818;20.478;2023-08-07T02:42:20;2.53;;;1.73;;
81170;SDS011;70644;44.818;20.478;2023-08-07T02:44:46;2.40;;;1.67;;
81170;SDS011;70644;44.818;20.478;2023-08-07T02:47:12;2.30;;;1.52;;
81170;SDS011;70644;44.818;20.478;2023-08-07T02:49:38;2.20;;;1.65;;
81170;SDS011;70644;44.818;20.478;2023-08-07T02:52:04;2.83;;;1.90;;
81170;SDS011;70644;44.818;20.478;2023-08-07T02:54:30;2.20;;;1.50;;
81170;SDS011;70644;44.818;20.478;2023-08-07T02:56:56;3.13;;;1.80;;
81170;SDS011;70644;44.818;20.478;2023-08-07T02:59:23;2.28;;;1.50;;
81170;SDS011;70644;44.818;20.478;2023-08-07T03:01:49;2.25;;;1.60;;
81170;SDS011;70644;44.818;20.478;2023-08-07T03:04:15;2.83;;;1.83;;
81170;SDS011;70644;44.818;20.478;2023-08-07T03:06:41;2.50;;;1.70;;
81170;SDS011;70644;44.818;20.478;2023-08-07T03:09:07;2.35;;;1.65;;
81170;SDS011;70644;44.818;20.478;2023-08-07T03:11:33;2.25;;;1.42;;
81170;SDS011;70644;44.818;20.478;2023-08-07T03:13:59;2.38;;;1.70;;
81170;SDS011;70644;44.818;20.478;2023-08-07T03:16:26;2.17;;;1.50;;
81170;SDS011;70644;44.818;20.478;2023-08-07T03:18:52;2.35;;;1.52;;
81170;SDS011;70644;44.818;20.478;2023-08-07T03:21:18;2.30;;;1.70;;
81170;SDS011;70644;44.818;20.478;2023-08-07T03:23:44;2.35;;;1.55;;
81170;SDS011;70644;44.818;20.478;2023-08-07T03:26:11;2.38;;;1.55;;
81170;SDS011;70644;44.818;20.478;2023-08-07T03:28:37;2.83;;;2.00;;
81170;SDS011;70644;44.818;20.478;2023-08-07T03:31:04;2.80;;;1.63;;
81170;SDS011;70644;44.818;20.478;2023-08-07T03:33:30;3.22;;;1.80;;
81170;SDS011;70644;44.818;20.478;2023-08-07T03:35:56;2.40;;;1.60;;
81170;SDS011;70644;44.818;20.478;2023-08-07T03:38:22;2.55;;;1.63;;
81170;SDS011;70644;44.818;20.478;2023-08-07T03:40:48;2.65;;;1.73;;
81170;SDS011;70644;44.818;20.478;2023-08-07T03:43:14;2.58;;;1.60;;
81170;SDS011;70644;44.818;20.478;2023-08-07T03:45:40;2.58;;;1.55;;
81170;SDS011;70644;44.818;20.478;2023-08-07T03:48:06;2.65;;;1.60;;
81170;SDS011;70644;44.818;20.478;2023-08-07T03:50:32;2.80;;;1.65;;
81170;SDS011;70644;44.818;20.478;2023-08-07T03:53:05;2.42;;;1.58;;
81170;SDS011;70644;44.818;20.478;2023-08-07T03:55:32;2.65;;;1.70;;
81170;SDS011;70644;44.818;20.478;2023-08-07T03:57:58;3.33;;;1.50;;
81170;SDS011;70644;44.818;20.478;2023-08-07T04:00:24;2.40;;;1.33;;
81170;SDS011;70644;44.818;20.478;2023-08-07T04:02:50;3.50;;;1.60;;
81170;SDS011;70644;44.818;20.478;2023-08-07T04:05:16;2.10;;;1.40;;
81170;SDS011;70644;44.818;20.478;2023-08-07T04:07:42;2.97;;;1.50;;
81170;SDS011;70644;44.818;20.478;2023-08-07T04:10:08;2.45;;;1.50;;
81170;SDS011;70644;44.818;20.478;2023-08-07T04:12:34;2.85;;;1.50;;
81170;SDS011;70644;44.818;20.478;2023-08-07T04:15:00;2.17;;;1.50;;
81170;SDS011;70644;44.818;20.478;2023-08-07T04:17:26;2.22;;;1.40;;
81170;SDS011;70644;44.818;20.478;2023-08-07T04:19:52;2.55;;;1.83;;
81170;SDS011;70644;44.818;20.478;2023-08-07T04:22:18;2.35;;;1.50;;
81170;SDS011;70644;44.818;20.478;2023-08-07T04:24:44;2.22;;;1.70;;
81170;SDS011;70644;44.818;20.478;2023-08-07T04:27:11;2.10;;;1.50;;
81170;SDS011;70644;44.818;20.478;2023-08-07T04:29:37;2.13;;;1.30;;
81170;SDS011;70644;44.818;20.478;2023-08-07T04:32:03;2.67;;;1.50;;
81170;SDS011;70644;44.818;20.478;2023-08-07T04:34:29;2.22;;;1.50;;
81170;SDS011;70644;44.818;20.478;2023-08-07T04:36:55;2.25;;;1.42;;
81170;SDS011;70644;44.818;20.478;2023-08-07T04:39:22;3.25;;;1.50;;
81170;SDS011;70644;44.818;20.478;2023-08-07T04:41:48;2.50;;;1.90;;
81170;SDS011;70644;44.818;20.478;2023-08-07T04:44:17;3.22;;;2.30;;
81170;SDS011;70644;44.818;20.478;2023-08-07T04:46:43;2.47;;;1.48;;
81170;SDS011;70644;44.818;20.478;2023-08-07T04:49:09;2.63;;;1.50;;
81170;SDS011;70644;44.818;20.478;2023-08-07T04:51:35;2.17;;;1.50;;
81170;SDS011;70644;44.818;20.478;2023-08-07T04:54:01;2.03;;;1.45;;
81170;SDS011;70644;44.818;20.478;2023-08-07T04:56:27;3.35;;;1.60;;
81170;SDS011;70644;44.818;20.478;2023-08-07T04:58:53;2.35;;;1.50;;
81170;SDS011;70644;44.818;20.478;2023-08-07T05:01:19;2.53;;;1.60;;
81170;SDS011;70644;44.818;20.478;2023-08-07T05:03:46;2.83;;;1.40;;
81170;SDS011;70644;44.818;20.478;2023-08-07T05:06:12;2.40;;;1.50;;
81170;SDS011;70644;44.818;20.478;2023-08-07T05:08:38;2.60;;;1.33;;
81170;SDS011;70644;44.818;20.478;2023-08-07T05:11:04;2.97;;;1.70;;
81170;SDS011;70644;44.818;20.478;2023-08-07T05:13:30;2.60;;;1.50;;
81170;SDS011;70644;44.818;20.478;2023-08-07T05:15:56;2.20;;;1.40;;
81170;SDS011;70644;44.818;20.478;2023-08-07T05:18:22;2.22;;;1.50;;
81170;SDS011;70644;44.818;20.478;2023-08-07T05:20:48;2.20;;;1.30;;
81170;SDS011;70644;44.818;20.478;2023-08-07T05:23:14;2.00;;;1.35;;
81170;SDS011;70644;44.818;20.478;2023-08-07T05:25:40;2.20;;;1.30;;
81170;SDS011;70644;44.818;20.478;2023-08-07T05:28:06;2.25;;;1.50;;
81170;SDS011;70644;44.818;20.478;2023-08-07T05:30:32;2.22;;;1.42;;
81170;SDS011;70644;44.818;20.478;2023-08-07T05:32:58;3.30;;;1.40;;
81170;SDS011;70644;44.818;20.478;2023-08-07T05:35:24;2.30;;;1.50;;
81170;SDS011;70644;44.818;20.478;2023-08-07T05:37:51;2.30;;;1.60;;
81170;SDS011;70644;44.818;20.478;2023-08-07T05:40:17;2.10;;;1.20;;
81170;SDS011;70644;44.818;20.478;2023-08-07T05:42:43;2.20;;;1.40;;
81170;SDS011;70644;44.818;20.478;2023-08-07T05:45:09;2.40;;;1.50;;
81170;SDS011;70644;44.818;20.478;2023-08-07T05:47:36;2.78;;;1.80;;
81170;SDS011;70644;44.818;20.478;2023-08-07T05:50:02;2.50;;;1.52;;
81170;SDS011;70644;44.818;20.478;2023-08-07T05:52:28;2.60;;;1.55;;
81170;SDS011;70644;44.818;20.478;2023-08-07T05:54:54;2.03;;;1.42;;
81170;SDS011;70644;44.818;20.478;2023-08-07T05:57:20;3.08;;;1.58;;
81170;SDS011;70644;44.818;20.478;2023-08-07T05:59:46;2.45;;;1.52;;
81170;SDS011;70644;44.818;20.478;2023-08-07T06:02:12;2.55;;;1.58;;
81170;SDS011;70644;44.818;20.478;2023-08-07T06:04:38;2.08;;;1.40;;
81170;SDS011;70644;44.818;20.478;2023-08-07T06:07:05;2.20;;;1.50;;
81170;SDS011;70644;44.818;20.478;2023-08-07T06:09:32;2.50;;;1.50;;
81170;SDS011;70644;44.818;20.478;2023-08-07T06:11:58;2.75;;;1.70;;
81170;SDS011;70644;44.818;20.478;2023-08-07T06:14:24;2.60;;;1.50;;
81170;SDS011;70644;44.818;20.478;2023-08-07T06:16:51;3.28;;;1.80;;
81170;SDS011;70644;44.818;20.478;2023-08-07T06:19:17;2.28;;;1.60;;
81170;SDS011;70644;44.818;20.478;2023-08-07T06:21:44;3.13;;;1.70;;
81170;SDS011;70644;44.818;20.478;2023-08-07T06:24:10;4.30;;;1.60;;
81170;SDS011;70644;44.818;20.478;2023-08-07T06:26:36;4.45;;;1.70;;
81170;SDS011;70644;44.818;20.478;2023-08-07T06:29:02;3.13;;;1.73;;
81170;SDS011;70644;44.818;20.478;2023-08-07T06:31:28;3.28;;;1.50;;
81170;SDS011;70644;44.818;20.478;2023-08-07T06:33:54;3.00;;;1.83;;
81170;SDS011;70644;44.818;20.478;2023-08-07T06:36:20;3.97;;;1.60;;
81170;SDS011;70644;44.818;20.478;2023-08-07T06:38:46;3.42;;;1.88;;
81170;SDS011;70644;44.818;20.478;2023-08-07T06:41:12;3.88;;;1.60;;
81170;SDS011;70644;44.818;20.478;2023-08-07T06:43:39;2.97;;;1.70;;
81170;SDS011;70644;44.818;20.478;2023-08-07T06:46:05;3.15;;;1.85;;
81170;SDS011;70644;44.818;20.478;2023-08-07T06:48:31;3.78;;;1.50;;
81170;SDS011;70644;44.818;20.478;2023-08-07T06:50:57;4.07;;;1.90;;
81170;SDS011;70644;44.818;20.478;2023-08-07T06:53:23;2.60;;;1.67;;
81170;SDS011;70644;44.818;20.478;2023-08-07T06:55:49;3.45;;;1.88;;
81170;SDS011;70644;44.818;20.478;2023-08-07T06:58:16;2.45;;;1.73;;
81170;SDS011;70644;44.818;20.478;2023-08-07T07:00:42;2.85;;;2.00;;
81170;SDS011;70644;44.818;20.478;2023-08-07T07:03:08;3.65;;;1.90;;
81170;SDS011;70644;44.818;20.478;2023-08-07T07:05:35;3.40;;;2.30;;
81170;SDS011;70644;44.818;20.478;2023-08-07T07:08:01;4.03;;;2.08;;
81170;SDS011;70644;44.818;20.478;2023-08-07T07:10:27;3.78;;;1.80;;
81170;SDS011;70644;44.818;20.478;2023-08-07T07:12:53;5.03;;;2.10;;
81170;SDS011;70644;44.818;20.478;2023-08-07T07:15:20;3.85;;;1.77;;
81170;SDS011;70644;44.818;20.478;2023-08-07T07:17:46;3.70;;;1.92;;
81170;SDS011;70644;44.818;20.478;2023-08-07T07:20:12;5.40;;;2.20;;
81170;SDS011;70644;44.818;20.478;2023-08-07T07:22:38;3.40;;;2.00;;
81170;SDS011;70644;44.818;20.478;2023-08-07T07:25:05;3.80;;;2.00;;
81170;SDS011;70644;44.818;20.478;2023-08-07T07:27:31;3.92;;;1.95;;
81170;SDS011;70644;44.818;20.478;2023-08-07T07:29:57;5.85;;;1.88;;
81170;SDS011;70644;44.818;20.478;2023-08-07T07:32:26;3.20;;;2.13;;
81170;SDS011;70644;44.818;20.478;2023-08-07T07:34:52;3.05;;;2.00;;
81170;SDS011;70644;44.818;20.478;2023-08-07T07:37:18;10.85;;;2.30;;
81170;SDS011;70644;44.818;20.478;2023-08-07T07:39:44;4.22;;;2.13;;
81170;SDS011;70644;44.818;20.478;2023-08-07T07:42:10;7.22;;;2.38;;
81170;SDS011;70644;44.818;20.478;2023-08-07T07:44:36;6.85;;;2.83;;
81170;SDS011;70644;44.818;20.478;2023-08-07T07:47:03;7.50;;;2.33;;
81170;SDS011;70644;44.818;20.478;2023-08-07T07:49:30;4.15;;;2.10;;
81170;SDS011;70644;44.818;20.478;2023-08-07T07:51:56;3.42;;;1.95;;
81170;SDS011;70644;44.818;20.478;2023-08-07T07:54:22;4.38;;;1.90;;
81170;SDS011;70644;44.818;20.478;2023-08-07T07:56:48;4.60;;;2.17;;
81170;SDS011;70644;44.818;20.478;2023-08-07T07:59:14;4.68;;;2.30;;
81170;SDS011;70644;44.818;20.478;2023-08-07T08:01:41;3.92;;;2.10;;
81170;SDS011;70644;44.818;20.478;2023-08-07T08:04:07;5.07;;;2.33;;
81170;SDS011;70644;44.818;20.478;2023-08-07T08:06:35;7.03;;;2.72;;
81170;SDS011;70644;44.818;20.478;2023-08-07T08:09:01;9.90;;;2.45;;
81170;SDS011;70644;44.818;20.478;2023-08-07T08:11:30;4.22;;;2.83;;
81170;SDS011;70644;44.818;20.478;2023-08-07T08:13:56;4.18;;;2.22;;
81170;SDS011;70644;44.818;20.478;2023-08-07T08:16:22;5.47;;;2.35;;
81170;SDS011;70644;44.818;20.478;2023-08-07T08:18:48;4.28;;;2.50;;
81170;SDS011;70644;44.818;20.478;2023-08-07T08:21:14;4.65;;;2.42;;
81170;SDS011;70644;44.818;20.478;2023-08-07T08:23:40;4.05;;;2.50;;
81170;SDS011;70644;44.818;20.478;2023-08-07T08:26:06;6.57;;;2.58;;
81170;SDS011;70644;44.818;20.478;2023-08-07T08:28:32;4.45;;;2.60;;
81170;SDS011;70644;44.818;20.478;2023-08-07T08:30:58;4.95;;;3.38;;
81170;SDS011;70644;44.818;20.478;2023-08-07T08:33:24;4.22;;;3.13;;
81170;SDS011;70644;44.818;20.478;2023-08-07T08:35:50;26.33;;;3.95;;
81170;SDS011;70644;44.818;20.478;2023-08-07T08:38:16;6.43;;;3.15;;
81170;SDS011;70644;44.818;20.478;2023-08-07T08:40:42;8.05;;;3.20;;
81170;SDS011;70644;44.818;20.478;2023-08-07T08:43:09;7.05;;;3.40;;
81170;SDS011;70644;44.818;20.478;2023-08-07T08:45:37;8.50;;;3.10;;
81170;SDS011;70644;44.818;20.478;2023-08-07T08:48:05;8.05;;;3.10;;
81170;SDS011;70644;44.818;20.478;2023-08-07T08:50:33;6.80;;;3.00;;
81170;SDS011;70644;44.818;20.478;2023-08-07T08:52:59;8.57;;;3.38;;
81170;SDS011;70644;44.818;20.478;2023-08-07T08:55:25;6.03;;;3.58;;
81170;SDS011;70644;44.818;20.478;2023-08-07T08:57:52;5.47;;;3.33;;
81170;SDS011;70644;44.818;20.478;2023-08-07T09:00:19;5.80;;;3.30;;
81170;SDS011;70644;44.818;20.478;2023-08-07T09:02:47;7.13;;;3.40;;
81170;SDS011;70644;44.818;20.478;2023-08-07T09:05:16;4.57;;;3.22;;
81170;SDS011;70644;44.818;20.478;2023-08-07T09:07:43;4.80;;;3.33;;
81170;SDS011;70644;44.818;20.478;2023-08-07T09:12:39;5.85;;;3.50;;
81170;SDS011;70644;44.818;20.478;2023-08-07T09:15:06;4.40;;;2.70;;
81170;SDS011;70644;44.818;20.478;2023-08-07T09:17:33;3.80;;;2.72;;
81170;SDS011;70644;44.818;20.478;2023-08-07T09:20:01;4.32;;;2.65;;
81170;SDS011;70644;44.818;20.478;2023-08-07T09:22:29;3.83;;;2.50;;
81170;SDS011;70644;44.818;20.478;2023-08-07T09:24:55;4.10;;;3.40;;
81170;SDS011;70644;44.818;20.478;2023-08-07T09:27:24;5.95;;;4.15;;
81170;SDS011;70644;44.818;20.478;2023-08-07T09:29:51;5.05;;;2.95;;
81170;SDS011;70644;44.818;20.478;2023-08-07T09:32:17;5.03;;;3.33;;
81170;SDS011;70644;44.818;20.478;2023-08-07T09:34:48;4.32;;;3.20;;
81170;SDS011;70644;44.818;20.478;2023-08-07T09:37:14;4.28;;;3.17;;
81170;SDS011;70644;44.818;20.478;2023-08-07T09:39:41;4.90;;;3.33;;
81170;SDS011;70644;44.818;20.478;2023-08-07T09:42:13;5.38;;;3.28;;
81170;SDS011;70644;44.818;20.478;2023-08-07T09:44:43;4.88;;;3.15;;
81170;SDS011;70644;44.818;20.478;2023-08-07T09:47:17;4.65;;;3.47;;
81170;SDS011;70644;44.818;20.478;2023-08-07T09:49:44;3.92;;;3.40;;
81170;SDS011;70644;44.818;20.478;2023-08-07T09:52:11;3.92;;;2.60;;
81170;SDS011;70644;44.818;20.478;2023-08-07T09:54:41;3.38;;;2.70;;
81170;SDS011;70644;44.818;20.478;2023-08-07T09:57:07;3.55;;;2.60;;
81170;SDS011;70644;44.818;20.478;2023-08-07T09:59:33;3.50;;;2.55;;
81170;SDS011;70644;44.818;20.478;2023-08-07T10:02:03;4.88;;;3.35;;
81170;SDS011;70644;44.818;20.478;2023-08-07T10:04:29;4.63;;;2.88;;
81170;SDS011;70644;44.818;20.478;2023-08-07T10:06:56;3.40;;;2.85;;
81170;SDS011;70644;44.818;20.478;2023-08-07T10:09:23;3.70;;;2.60;;
81170;SDS011;70644;44.818;20.478;2023-08-07T10:11:50;4.32;;;3.20;;
81170;SDS011;70644;44.818;20.478;2023-08-07T10:14:16;6.20;;;4.32;;
81170;SDS011;70644;44.818;20.478;2023-08-07T10:16:42;4.43;;;3.30;;
81170;SDS011;70644;44.818;20.478;2023-08-07T10:19:09;4.72;;;3.63;;
81170;SDS011;70644;44.818;20.478;2023-08-07T10:21:35;5.25;;;3.03;;
81170;SDS011;70644;44.818;20.478;2023-08-07T10:24:04;6.93;;;3.50;;
81170;SDS011;70644;44.818;20.478;2023-08-07T10:26:44;4.60;;;3.22;;
81170;SDS011;70644;44.818;20.478;2023-08-07T10:29:13;7.07;;;5.32;;
81170;SDS011;70644;44.818;20.478;2023-08-07T10:34:07;5.93;;;5.03;;
81170;SDS011;70644;44.818;20.478;2023-08-07T10:36:34;5.78;;;4.65;;
81170;SDS011;70644;44.818;20.478;2023-08-07T10:39:13;5.70;;;4.60;;
81170;SDS011;70644;44.818;20.478;2023-08-07T10:41:44;4.30;;;3.78;;
81170;SDS011;70644;44.818;20.478;2023-08-07T10:44:17;4.13;;;3.08;;
81170;SDS011;70644;44.818;20.478;2023-08-07T10:46:48;6.25;;;3.50;;
81170;SDS011;70644;44.818;20.478;2023-08-07T10:49:33;4.22;;;3.38;;
81170;SDS011;70644;44.818;20.478;2023-08-07T10:52:04;4.38;;;3.70;;
81170;SDS011;70644;44.818;20.478;2023-08-07T10:54:30;5.55;;;3.35;;
81170;SDS011;70644;44.818;20.478;2023-08-07T10:56:56;14.90;;;4.80;;
81170;SDS011;70644;44.818;20.478;2023-08-07T10:59:22;4.68;;;3.58;;
81170;SDS011;70644;44.818;20.478;2023-08-07T11:01:53;5.20;;;3.95;;
81170;SDS011;70644;44.818;20.478;2023-08-07T11:04:21;7.43;;;6.20;;
81170;SDS011;70644;44.818;20.478;2023-08-07T11:06:50;7.03;;;5.07;;
81170;SDS011;70644;44.818;20.478;2023-08-07T11:09:16;5.82;;;4.72;;
81170;SDS011;70644;44.818;20.478;2023-08-07T11:11:46;6.38;;;4.60;;
81170;SDS011;70644;44.818;20.478;2023-08-07T11:14:16;5.50;;;4.57;;
81170;SDS011;70644;44.818;20.478;2023-08-07T11:16:42;6.32;;;5.50;;
81170;SDS011;70644;44.818;20.478;2023-08-07T11:19:09;5.95;;;4.22;;
81170;SDS011;70644;44.818;20.478;2023-08-07T11:21:36;5.28;;;4.78;;
81170;SDS011;70644;44.818;20.478;2023-08-07T11:24:03;5.00;;;3.05;;
81170;SDS011;70644;44.818;20.478;2023-08-07T11:26:29;4.53;;;3.67;;
81170;SDS011;70644;44.818;20.478;2023-08-07T11:28:55;6.50;;;4.07;;
81170;SDS011;70644;44.818;20.478;2023-08-07T11:31:22;4.90;;;3.30;;
81170;SDS011;70644;44.818;20.478;2023-08-07T11:33:53;6.45;;;4.32;;
81170;SDS011;70644;44.818;20.478;2023-08-07T11:36:19;4.65;;;3.45;;
81170;SDS011;70644;44.818;20.478;2023-08-07T11:38:45;5.07;;;3.72;;
81170;SDS011;70644;44.818;20.478;2023-08-07T11:41:13;5.18;;;3.20;;
81170;SDS011;70644;44.818;20.478;2023-08-07T11:43:39;3.55;;;2.85;;
81170;SDS011;70644;44.818;20.478;2023-08-07T11:46:06;5.90;;;4.00;;
81170;SDS011;70644;44.818;20.478;2023-08-07T11:48:33;5.78;;;3.42;;
81170;SDS011;70644;44.818;20.478;2023-08-07T11:50:59;5.78;;;3.72;;
81170;SDS011;70644;44.818;20.478;2023-08-07T11:53:30;5.15;;;3.63;;
81170;SDS011;70644;44.818;20.478;2023-08-07T11:58:24;6.50;;;3.90;;
81170;SDS011;70644;44.818;20.478;2023-08-07T12:00:50;5.40;;;4.25;;
81170;SDS011;70644;44.818;20.478;2023-08-07T12:03:32;7.45;;;3.65;;
81170;SDS011;70644;44.818;20.478;2023-08-07T12:06:01;4.88;;;3.60;;
81170;SDS011;70644;44.818;20.478;2023-08-07T12:10:54;6.07;;;3.67;;
81170;SDS011;70644;44.818;20.478;2023-08-07T12:13:23;6.72;;;4.60;;
81170;SDS011;70644;44.818;20.478;2023-08-07T12:15:51;5.15;;;3.60;;
81170;SDS011;70644;44.818;20.478;2023-08-07T12:18:18;8.23;;;3.90;;
81170;SDS011;70644;44.818;20.478;2023-08-07T12:20:44;4.00;;;3.20;;
81170;SDS011;70644;44.818;20.478;2023-08-07T12:23:13;4.35;;;3.20;;
81170;SDS011;70644;44.818;20.478;2023-08-07T12:25:41;5.45;;;3.20;;
81170;SDS011;70644;44.818;20.478;2023-08-07T12:28:07;5.18;;;3.55;;
81170;SDS011;70644;44.818;20.478;2023-08-07T12:30:34;5.45;;;3.50;;
81170;SDS011;70644;44.818;20.478;2023-08-07T12:33:00;5.25;;;3.45;;
81170;SDS011;70644;44.818;20.478;2023-08-07T12:35:28;3.85;;;2.80;;
81170;SDS011;70644;44.818;20.478;2023-08-07T12:37:54;4.00;;;2.75;;
81170;SDS011;70644;44.818;20.478;2023-08-07T12:40:20;4.57;;;3.05;;
81170;SDS011;70644;44.818;20.478;2023-08-07T12:42:47;4.82;;;3.20;;
81170;SDS011;70644;44.818;20.478;2023-08-07T12:45:14;6.57;;;3.28;;
81170;SDS011;70644;44.818;20.478;2023-08-07T12:47:41;5.28;;;2.95;;
81170;SDS011;70644;44.818;20.478;2023-08-07T12:50:08;3.92;;;2.97;;
81170;SDS011;70644;44.818;20.478;2023-08-07T12:52:34;4.07;;;3.03;;
81170;SDS011;70644;44.818;20.478;2023-08-07T12:55:00;4.68;;;2.95;;
81170;SDS011;70644;44.818;20.478;2023-08-07T12:57:26;4.55;;;2.80;;
81170;SDS011;70644;44.818;20.478;2023-08-07T12:59:52;3.90;;;2.60;;
81170;SDS011;70644;44.818;20.478;2023-08-07T13:02:18;6.97;;;3.80;;
81170;SDS011;70644;44.818;20.478;2023-08-07T13:04:44;5.00;;;2.92;;
81170;SDS011;70644;44.818;20.478;2023-08-07T13:07:11;3.97;;;2.80;;
81170;SDS011;70644;44.818;20.478;2023-08-07T13:09:37;6.38;;;3.40;;
81170;SDS011;70644;44.818;20.478;2023-08-07T13:12:04;4.55;;;3.25;;
81170;SDS011;70644;44.818;20.478;2023-08-07T13:14:30;4.10;;;3.38;;
81170;SDS011;70644;44.818;20.478;2023-08-07T13:16:56;3.60;;;2.85;;
81170;SDS011;70644;44.818;20.478;2023-08-07T13:19:22;4.82;;;3.53;;
81170;SDS011;70644;44.818;20.478;2023-08-07T13:21:48;5.18;;;2.58;;
81170;SDS011;70644;44.818;20.478;2023-08-07T13:24:14;3.78;;;2.67;;
81170;SDS011;70644;44.818;20.478;2023-08-07T13:26:40;4.45;;;2.72;;
81170;SDS011;70644;44.818;20.478;2023-08-07T13:29:13;5.60;;;3.40;;
81170;SDS011;70644;44.818;20.478;2023-08-07T13:31:40;5.40;;;2.95;;
81170;SDS011;70644;44.818;20.478;2023-08-07T13:34:06;5.53;;;3.03;;
81170;SDS011;70644;44.818;20.478;2023-08-07T13:36:36;4.88;;;3.67;;
81170;SDS011;70644;44.818;20.478;2023-08-07T13:39:02;11.40;;;5.63;;
81170;SDS011;70644;44.818;20.478;2023-08-07T13:41:29;4.95;;;4.45;;
81170;SDS011;70644;44.818;20.478;2023-08-07T13:43:55;6.15;;;4.90;;
81170;SDS011;70644;44.818;20.478;2023-08-07T13:46:21;7.18;;;4.90;;
81170;SDS011;70644;44.818;20.478;2023-08-07T13:48:47;7.28;;;4.82;;
81170;SDS011;70644;44.818;20.478;2023-08-07T13:51:13;5.97;;;4.72;;
81170;SDS011;70644;44.818;20.478;2023-08-07T13:53:39;7.20;;;5.15;;
81170;SDS011;70644;44.818;20.478;2023-08-07T13:56:06;7.85;;;5.38;;
81170;SDS011;70644;44.818;20.478;2023-08-07T13:58:33;7.22;;;6.47;;
81170;SDS011;70644;44.818;20.478;2023-08-07T14:00:59;14.18;;;11.88;;
81170;SDS011;70644;44.818;20.478;2023-08-07T14:03:26;13.55;;;12.15;;
81170;SDS011;70644;44.818;20.478;2023-08-07T14:05:52;14.15;;;12.27;;
81170;SDS011;70644;44.818;20.478;2023-08-07T14:08:18;13.48;;;12.07;;
81170;SDS011;70644;44.818;20.478;2023-08-07T14:10:44;15.43;;;11.88;;
81170;SDS011;70644;44.818;20.478;2023-08-07T14:13:10;14.02;;;12.55;;
81170;SDS011;70644;44.818;20.478;2023-08-07T14:15:37;13.98;;;12.57;;
81170;SDS011;70644;44.818;20.478;2023-08-07T14:18:03;14.10;;;12.60;;
81170;SDS011;70644;44.818;20.478;2023-08-07T14:20:29;12.50;;;11.23;;
81170;SDS011;70644;44.818;20.478;2023-08-07T14:22:55;9.98;;;8.55;;
81170;SDS011;70644;44.818;20.478;2023-08-07T14:25:21;10.25;;;8.35;;
81170;SDS011;70644;44.818;20.478;2023-08-07T14:27:47;7.60;;;6.80;;
81170;SDS011;70644;44.818;20.478;2023-08-07T14:30:13;7.97;;;5.80;;
81170;SDS011;70644;44.818;20.478;2023-08-07T14:32:40;6.82;;;5.60;;
81170;SDS011;70644;44.818;20.478;2023-08-07T14:35:08;5.60;;;4.32;;
81170;SDS011;70644;44.818;20.478;2023-08-07T14:37:34;7.75;;;4.65;;
81170;SDS011;70644;44.818;20.478;2023-08-07T14:40:01;5.65;;;4.35;;